Time;durP1;ratioP1;P1;durP2;ratioP2;P2;SDS_P1;SDS_P2;PMS_P1;PMS_P2;Temp;Humidity;BMP_temperature;BMP_pressure;BME280_temperature;BME280_humidity;BME280_pressure;Samples;Min_cycle;Max_cycle;Signal;HPM_P1;HPM_P2
2023/04/01 00:01:04;;;;;;;16.65;8.07;;;9.30;99.90;;;;;;5059946;28;20539;-70
2023/04/01 00:03:30;;;;;;;16.20;7.88;;;9.20;99.90;;;;;;5063122;28;20040;-70
2023/04/01 00:05:58;;;;;;;10.98;6.97;;;9.20;99.90;;;;;;5047726;28;20059;-70
2023/04/01 00:08:25;;;;;;;13.10;7.97;;;9.20;99.90;;;;;;5058514;28;20055;-71
2023/04/01 00:10:51;;;;;;;11.57;6.78;;;9.20;99.90;;;;;;5045751;28;20116;-71
2023/04/01 00:13:16;;;;;;;13.52;7.07;;;9.20;99.90;;;;;;5052382;28;20029;-71
2023/04/01 00:15:54;;;;;;;11.40;6.95;;;9.20;99.90;;;;;;5057779;28;20083;-70
2023/04/01 00:18:20;;;;;;;13.82;7.30;;;9.20;99.90;;;;;;5041497;28;20041;-71
2023/04/01 00:20:50;;;;;;;12.93;6.82;;;9.20;99.90;;;;;;5059207;28;20067;-71
2023/04/01 00:23:18;;;;;;;14.48;7.13;;;9.20;99.90;;;;;;5061401;28;20096;-70
2023/04/01 00:25:45;;;;;;;15.93;6.65;;;9.20;99.90;;;;;;5052945;28;20498;-70
2023/04/01 00:28:11;;;;;;;15.63;6.32;;;9.20;99.90;;;;;;5062212;28;20105;-70
2023/04/01 00:30:37;;;;;;;12.52;6.32;;;9.20;99.90;;;;;;5058065;28;20506;-70
2023/04/01 00:33:03;;;;;;;13.27;6.60;;;9.20;99.90;;;;;;5061367;28;20048;-70
2023/04/01 00:35:36;;;;;;;10.25;5.38;;;9.20;99.90;;;;;;5042998;28;20040;-70
2023/04/01 00:38:02;;;;;;;11.60;6.47;;;9.20;99.90;;;;;;5044160;28;20052;-71
2023/04/01 00:40:31;;;;;;;11.00;6.57;;;9.20;99.90;;;;;;5059341;28;20053;-70
2023/04/01 00:42:57;;;;;;;13.73;6.20;;;9.20;99.90;;;;;;5062209;28;20048;-70
2023/04/01 00:45:29;;;;;;;10.52;6.38;;;9.20;99.90;;;;;;5042640;28;20087;-71
2023/04/01 00:47:56;;;;;;;14.40;6.85;;;9.20;99.90;;;;;;5062723;28;20040;-71
2023/04/01 00:50:24;;;;;;;14.77;6.72;;;9.20;99.90;;;;;;5040631;28;20502;-71
2023/04/01 00:52:51;;;;;;;14.77;6.60;;;9.20;99.90;;;;;;5058743;28;20050;-71
2023/04/01 00:55:19;;;;;;;10.07;6.20;;;9.20;99.90;;;;;;5027333;28;20049;-70
2023/04/01 00:57:48;;;;;;;11.90;6.43;;;9.20;99.90;;;;;;5062462;28;20094;-71
2023/04/01 01:00:15;;;;;;;12.65;6.82;;;9.20;99.90;;;;;;5045203;28;20119;-71
2023/04/01 01:02:44;;;;;;;13.18;6.85;;;9.20;99.90;;;;;;5062529;28;20044;-70
2023/04/01 01:05:13;;;;;;;14.68;6.93;;;9.20;99.90;;;;;;5057221;28;20051;-70
2023/04/01 01:07:54;;;;;;;13.95;6.53;;;9.10;99.90;;;;;;5056774;28;20398;-70
2023/04/01 01:10:34;;;;;;;12.18;6.10;;;9.20;99.90;;;;;;5061890;28;20522;-70
2023/04/01 01:13:22;;;;;;;10.27;6.13;;;9.10;99.90;;;;;;5043331;28;20123;-71
2023/04/01 01:16:04;;;;;;;13.32;6.93;;;9.10;99.90;;;;;;5054046;28;20094;-71
2023/04/01 01:18:57;;;;;;;12.27;6.28;;;9.20;99.90;;;;;;5063017;28;20048;-70
2023/04/01 01:21:56;;;;;;;14.57;6.13;;;9.20;99.90;;;;;;5063105;28;20048;-71
2023/04/01 01:24:54;;;;;;;12.13;5.07;;;9.10;99.90;;;;;;5063824;28;20049;-70
2023/04/01 01:27:30;;;;;;;9.85;4.82;;;9.10;99.90;;;;;;5064834;28;20067;-70
2023/04/01 01:30:30;;;;;;;9.85;5.18;;;9.10;99.90;;;;;;5078861;28;20040;-70
2023/04/01 01:33:18;;;;;;;11.77;5.55;;;9.10;99.90;;;;;;5080620;28;20040;-71
2023/04/01 01:35:51;;;;;;;16.40;6.53;;;9.10;99.90;;;;;;5062565;28;20043;-71
2023/04/01 01:38:21;;;;;;;14.70;6.03;;;9.10;99.90;;;;;;5057507;28;20041;-69
2023/04/01 01:40:54;;;;;;;12.60;5.68;;;9.10;99.90;;;;;;5077682;28;20052;-71
2023/04/01 01:43:28;;;;;;;11.48;5.93;;;9.10;99.90;;;;;;5048442;28;20067;-71
2023/04/01 01:45:57;;;;;;;15.35;6.20;;;9.10;99.90;;;;;;5064417;28;20047;-70
2023/04/01 01:48:26;;;;;;;10.52;5.53;;;9.10;99.90;;;;;;5065154;28;20059;-70
2023/04/01 01:50:52;;;;;;;9.55;5.65;;;9.10;99.90;;;;;;5062801;28;20076;-70
2023/04/01 01:53:18;;;;;;;10.95;5.40;;;9.10;99.90;;;;;;5064289;28;20071;-70
2023/04/01 01:55:46;;;;;;;13.18;5.63;;;9.10;99.90;;;;;;5057526;28;20044;-71
2023/04/01 01:58:24;;;;;;;9.30;5.28;;;9.10;99.90;;;;;;5070134;28;20044;-70
2023/04/01 02:01:02;;;;;;;12.60;6.00;;;9.10;99.90;;;;;;5065777;28;20045;-70
2023/04/01 02:03:34;;;;;;;10.45;5.88;;;9.10;99.90;;;;;;5064443;28;20055;-70
2023/04/01 02:06:02;;;;;;;11.23;6.32;;;9.10;99.90;;;;;;5061589;28;20037;-70
2023/04/01 02:08:36;;;;;;;11.05;5.90;;;9.10;99.90;;;;;;5060519;28;20100;-70
2023/04/01 02:11:15;;;;;;;17.35;6.22;;;9.10;99.90;;;;;;5066541;28;20048;-70
2023/04/01 02:14:05;;;;;;;13.95;6.72;;;9.10;99.90;;;;;;5065518;28;20089;-71
2023/04/01 02:16:55;;;;;;;12.77;5.93;;;9.10;99.90;;;;;;5062607;28;20049;-70
2023/04/01 02:19:47;;;;;;;13.05;6.60;;;9.10;99.90;;;;;;5047794;28;20194;-71
2023/04/01 02:22:27;;;;;;;12.77;6.63;;;9.10;99.90;;;;;;5063015;28;20125;-71
2023/04/01 02:24:59;;;;;;;12.77;6.55;;;9.10;99.90;;;;;;5067777;28;20041;-71
2023/04/01 02:27:29;;;;;;;16.83;7.30;;;9.10;99.90;;;;;;5062687;28;20121;-70
2023/04/01 02:29:54;;;;;;;13.80;6.85;;;9.10;99.90;;;;;;5060978;28;20042;-70
2023/04/01 02:32:20;;;;;;;13.20;7.03;;;9.10;99.90;;;;;;5071959;28;20060;-68
2023/04/01 02:34:47;;;;;;;14.60;7.60;;;9.10;99.90;;;;;;5085150;28;20051;-69
2023/04/01 02:37:14;;;;;;;14.00;7.82;;;9.10;99.90;;;;;;5083782;28;20029;-68
2023/04/01 02:39:42;;;;;;;13.38;6.93;;;9.10;99.90;;;;;;5071109;28;20040;-70
2023/04/01 02:42:10;;;;;;;17.98;7.97;;;9.10;99.90;;;;;;5045758;28;20617;-71
2023/04/01 02:44:36;;;;;;;16.50;7.45;;;9.10;99.90;;;;;;5049414;28;20059;-71
2023/04/01 02:47:02;;;;;;;14.45;7.25;;;9.10;99.90;;;;;;5062281;28;20037;-71
2023/04/01 02:49:27;;;;;;;17.42;7.32;;;9.10;99.90;;;;;;5026784;28;20041;-71
2023/04/01 02:51:53;;;;;;;15.18;7.50;;;9.10;99.90;;;;;;5062476;28;20043;-70
2023/04/01 02:54:19;;;;;;;16.27;7.25;;;9.10;99.90;;;;;;5032965;28;20063;-70
2023/04/01 02:56:45;;;;;;;16.35;7.65;;;9.10;99.90;;;;;;5042852;28;20048;-69
2023/04/01 02:59:11;;;;;;;23.58;7.97;;;9.10;99.90;;;;;;5057366;28;20493;-70
2023/04/01 03:01:37;;;;;;;16.73;7.18;;;9.10;99.90;;;;;;5063607;28;20458;-71
2023/04/01 03:04:03;;;;;;;15.88;7.22;;;9.10;99.90;;;;;;5058309;28;20064;-70
2023/04/01 03:06:29;;;;;;;18.38;7.07;;;9.10;99.90;;;;;;5080751;28;20045;-70
2023/04/01 03:08:55;;;;;;;19.80;7.30;;;9.10;99.90;;;;;;5061437;28;20424;-71
2023/04/01 03:11:21;;;;;;;22.17;7.15;;;9.10;99.90;;;;;;5059361;28;20094;-71
2023/04/01 03:13:47;;;;;;;19.17;7.47;;;9.10;99.90;;;;;;5044065;28;20082;-71
2023/04/01 03:16:13;;;;;;;20.05;7.40;;;9.10;99.90;;;;;;5046917;28;20571;-70
2023/04/01 03:18:38;;;;;;;23.15;7.40;;;9.10;99.90;;;;;;5056039;28;20446;-70
2023/04/01 03:21:16;;;;;;;19.08;6.47;;;9.00;99.90;;;;;;5041911;28;20051;-70
2023/04/01 03:23:42;;;;;;;18.35;7.35;;;9.10;99.90;;;;;;5068054;28;20103;-71
2023/04/01 03:26:08;;;;;;;21.67;7.50;;;9.00;99.90;;;;;;5060552;28;20501;-70
2023/04/01 03:28:33;;;;;;;20.45;7.30;;;9.10;99.90;;;;;;5062627;28;20049;-71
2023/04/01 03:30:59;;;;;;;22.95;7.50;;;9.10;99.90;;;;;;5063300;28;20044;-71
2023/04/01 03:33:25;;;;;;;20.70;7.75;;;9.00;99.90;;;;;;5044819;28;20044;-70
2023/04/01 03:35:51;;;;;;;15.10;6.90;;;9.00;99.90;;;;;;5064787;28;20079;-71
2023/04/01 03:38:18;;;;;;;18.50;7.35;;;9.10;99.90;;;;;;5058502;28;20502;-71
2023/04/01 03:40:44;;;;;;;17.90;7.65;;;9.10;99.90;;;;;;5063786;28;20544;-70
2023/04/01 03:43:10;;;;;;;21.88;7.93;;;9.10;99.90;;;;;;5054568;28;20048;-70
2023/04/01 03:45:47;;;;;;;15.68;6.75;;;9.10;99.90;;;;;;5060543;28;20040;-70
2023/04/01 03:48:15;;;;;;;19.65;7.25;;;9.00;99.90;;;;;;5058201;28;20076;-70
2023/04/01 03:50:42;;;;;;;21.10;8.00;;;9.00;99.90;;;;;;5063537;28;20051;-70
2023/04/01 03:53:08;;;;;;;23.17;8.10;;;9.10;99.90;;;;;;5057220;28;20132;-71
2023/04/01 03:55:35;;;;;;;17.65;7.18;;;9.10;99.90;;;;;;5060198;28;20044;-70
2023/04/01 03:58:02;;;;;;;13.90;6.82;;;9.00;99.90;;;;;;5046427;28;20112;-71
2023/04/01 04:00:31;;;;;;;17.45;8.05;;;9.10;99.90;;;;;;5044695;28;20048;-71
2023/04/01 04:02:58;;;;;;;20.48;8.77;;;9.10;99.90;;;;;;5045319;28;20036;-71
2023/04/01 04:05:33;;;;;;;23.13;8.30;;;9.10;99.90;;;;;;5063605;28;20044;-70
2023/04/01 04:07:59;;;;;;;24.52;8.98;;;9.00;99.90;;;;;;5061214;28;20040;-71
2023/04/01 04:10:24;;;;;;;24.23;9.20;;;9.10;99.90;;;;;;5045208;28;20047;-71
2023/04/01 04:12:51;;;;;;;23.88;8.57;;;9.00;99.90;;;;;;5044914;28;20627;-71
2023/04/01 04:15:17;;;;;;;21.23;8.35;;;9.10;99.90;;;;;;5058379;28;20032;-70
2023/04/01 04:17:45;;;;;;;22.33;8.88;;;9.10;99.90;;;;;;5061710;28;20036;-71
2023/04/01 04:20:11;;;;;;;21.65;8.60;;;9.00;99.90;;;;;;5060930;28;20133;-71
2023/04/01 04:22:36;;;;;;;20.52;8.45;;;9.00;99.90;;;;;;5060724;28;20040;-71
2023/04/01 04:25:02;;;;;;;16.95;8.52;;;9.10;99.90;;;;;;5025112;28;20044;-71
2023/04/01 04:27:28;;;;;;;20.17;9.05;;;9.00;99.90;;;;;;5063355;28;20044;-71
2023/04/01 04:29:54;;;;;;;21.95;8.88;;;9.00;99.90;;;;;;5060851;28;20445;-70
2023/04/01 04:32:19;;;;;;;23.00;9.80;;;9.00;99.90;;;;;;5030045;28;20070;-70
2023/04/01 04:34:45;;;;;;;26.20;10.18;;;9.00;99.90;;;;;;5061183;28;20028;-71
2023/04/01 04:37:11;;;;;;;27.65;11.00;;;9.00;99.90;;;;;;5059559;28;20040;-71
2023/04/01 04:39:36;;;;;;;29.33;12.25;;;9.00;99.90;;;;;;5033367;28;20032;-71
2023/04/01 04:42:02;;;;;;;26.85;11.75;;;9.10;99.90;;;;;;5060115;28;20095;-71
2023/04/01 04:44:28;;;;;;;30.90;12.85;;;9.00;99.90;;;;;;5049058;28;20051;-71
2023/04/01 04:46:54;;;;;;;35.97;13.15;;;9.10;99.90;;;;;;5039263;28;20045;-70
2023/04/01 04:49:20;;;;;;;34.00;13.40;;;9.00;99.90;;;;;;5060537;28;20481;-71
2023/04/01 04:51:45;;;;;;;35.75;14.20;;;9.00;99.90;;;;;;5035224;28;20699;-71
2023/04/01 04:54:11;;;;;;;35.20;14.88;;;9.10;99.90;;;;;;5057860;28;20039;-71
2023/04/01 04:56:37;;;;;;;41.20;14.80;;;9.00;99.90;;;;;;5042963;28;20070;-71
2023/04/01 04:59:03;;;;;;;43.10;15.70;;;9.10;99.90;;;;;;5071355;28;20035;-71
2023/04/01 05:01:28;;;;;;;49.10;17.00;;;9.00;99.90;;;;;;5063143;28;20043;-71
2023/04/01 05:03:54;;;;;;;37.45;14.50;;;9.10;99.90;;;;;;5051306;28;20110;-71
2023/04/01 05:06:20;;;;;;;38.80;16.08;;;9.10;99.90;;;;;;5052160;28;20110;-71
2023/04/01 05:08:46;;;;;;;35.97;15.00;;;9.10;99.90;;;;;;5052181;28;20550;-70
2023/04/01 05:11:15;;;;;;;36.38;14.90;;;9.00;99.90;;;;;;5064622;28;20032;-71
2023/04/01 05:13:41;;;;;;;37.88;15.48;;;9.00;99.90;;;;;;5052678;28;20592;-71
2023/04/01 05:16:12;;;;;;;38.50;15.80;;;9.00;99.90;;;;;;5048223;28;20029;-71
2023/04/01 05:18:38;;;;;;;40.03;14.82;;;9.10;99.90;;;;;;5063343;28;20043;-71
2023/04/01 05:21:06;;;;;;;28.80;13.95;;;9.10;99.90;;;;;;5063299;28;20558;-71
2023/04/01 05:23:33;;;;;;;34.85;13.35;;;9.10;99.90;;;;;;5044175;28;20037;-71
2023/04/01 05:26:02;;;;;;;31.27;13.40;;;9.10;99.90;;;;;;5063722;28;20459;-71
2023/04/01 05:28:27;;;;;;;33.25;14.45;;;9.10;99.90;;;;;;5064340;28;20433;-71
2023/04/01 05:30:53;;;;;;;34.60;14.38;;;9.10;99.90;;;;;;5063253;28;20040;-71
2023/04/01 05:33:19;;;;;;;36.08;14.98;;;9.10;99.90;;;;;;5050702;28;20067;-71
2023/04/01 05:35:44;;;;;;;44.85;15.48;;;9.10;99.90;;;;;;5053839;28;20097;-70
2023/04/01 05:38:10;;;;;;;34.88;13.65;;;9.10;99.90;;;;;;5068279;28;20070;-70
2023/04/01 05:40:36;;;;;;;34.15;14.65;;;9.10;99.90;;;;;;5047120;28;20057;-71
2023/04/01 05:43:02;;;;;;;34.70;13.85;;;9.10;99.90;;;;;;5065079;28;20702;-71
2023/04/01 05:45:28;;;;;;;40.85;14.80;;;9.10;99.90;;;;;;5064960;28;20040;-71
2023/04/01 05:47:54;;;;;;;46.63;16.70;;;9.20;99.90;;;;;;5061038;28;20394;-71
2023/04/01 05:50:19;;;;;;;35.42;14.43;;;9.10;99.90;;;;;;5047881;28;20043;-71
2023/04/01 05:52:45;;;;;;;37.05;14.57;;;9.20;99.90;;;;;;5050534;28;20052;-70
2023/04/01 05:55:11;;;;;;;37.70;14.40;;;9.20;99.90;;;;;;5048856;28;20032;-71
2023/04/01 05:57:37;;;;;;;34.88;13.65;;;9.20;99.90;;;;;;5063660;28;20752;-70
2023/04/01 06:00:04;;;;;;;33.80;13.70;;;9.20;99.90;;;;;;5085704;28;20033;-71
2023/04/01 06:02:30;;;;;;;32.10;12.90;;;9.20;99.90;;;;;;5079882;28;20041;-71
2023/04/01 06:05:19;;;;;;;34.80;13.45;;;9.20;99.90;;;;;;5048448;28;20150;-71
2023/04/01 06:07:45;;;;;;;36.58;13.30;;;9.20;99.90;;;;;;5057813;28;20052;-70
2023/04/01 06:10:17;;;;;;;29.98;12.57;;;9.20;99.90;;;;;;5052628;28;20036;-71
2023/04/01 06:12:49;;;;;;;31.88;12.70;;;9.20;99.90;;;;;;5068784;28;20043;-70
2023/04/01 06:15:39;;;;;;;27.15;12.38;;;9.30;99.90;;;;;;5064155;28;20036;-70
2023/04/01 06:18:22;;;;;;;29.20;12.23;;;9.20;99.90;;;;;;5067198;28;20101;-70
2023/04/01 06:20:47;;;;;;;;;;;9.20;99.90;;;;;;5069312;28;20052;-71
2023/04/01 06:23:24;;;;;;;29.45;11.98;;;9.30;99.90;;;;;;5066644;28;19922;-71
2023/04/01 06:26:09;;;;;;;28.35;11.38;;;9.30;99.90;;;;;;5064035;28;20432;-71
2023/04/01 06:28:46;;;;;;;24.63;10.93;;;9.30;99.90;;;;;;5064717;28;20048;-71
2023/04/01 06:31:49;;;;;;;25.02;11.15;;;9.30;99.90;;;;;;5064784;28;20039;-71
2023/04/01 06:34:36;;;;;;;20.17;9.65;;;9.30;99.90;;;;;;5056588;28;20473;-71
2023/04/01 06:37:16;;;;;;;29.52;11.55;;;9.30;99.90;;;;;;5058629;28;20421;-71
2023/04/01 06:40:06;;;;;;;31.15;10.57;;;9.40;99.90;;;;;;5049582;28;20036;-71
2023/04/01 06:42:37;;;;;;;22.48;9.45;;;9.40;99.90;;;;;;5052519;28;20468;-71
2023/04/01 06:45:06;;;;;;;22.95;9.48;;;9.40;99.90;;;;;;5069239;28;20429;-70
2023/04/01 06:47:54;;;;;;;24.15;9.57;;;9.40;99.90;;;;;;5065886;28;20101;-71
2023/04/01 06:50:29;;;;;;;22.33;9.98;;;9.40;99.90;;;;;;5057000;28;20045;-71
2023/04/01 06:52:55;;;;;;;21.17;9.73;;;9.40;99.90;;;;;;5059900;28;20047;-71
2023/04/01 06:55:35;;;;;;;19.08;8.18;;;9.40;99.90;;;;;;5049600;28;20028;-71
2023/04/01 06:58:04;;;;;;;19.90;7.90;;;9.40;99.90;;;;;;5066106;28;20116;-70
2023/04/01 07:00:39;;;;;;;18.02;8.77;;;9.40;99.90;;;;;;5051333;28;20290;-71
2023/04/01 07:03:32;;;;;;;13.20;7.28;;;9.40;99.90;;;;;;5066784;28;20040;-70
2023/04/01 07:06:06;;;;;;;19.77;7.85;;;9.40;99.90;;;;;;5065645;28;20040;-70
2023/04/01 07:08:36;;;;;;;16.17;7.50;;;9.50;99.90;;;;;;5062030;28;20522;-71
2023/04/01 07:11:09;;;;;;;21.10;8.35;;;9.50;99.90;;;;;;5055985;28;20043;-71
2023/04/01 07:13:54;;;;;;;14.82;7.03;;;9.60;99.90;;;;;;5066331;28;20117;-71
2023/04/01 07:16:32;;;;;;;17.55;7.70;;;9.60;99.90;;;;;;5054922;28;20044;-71
2023/04/01 07:19:22;;;;;;;17.35;8.00;;;9.60;99.90;;;;;;5058563;28;20043;-71
2023/04/01 07:22:05;;;;;;;12.82;6.78;;;9.60;99.90;;;;;;5066032;28;20036;-71
2023/04/01 07:24:41;;;;;;;14.30;6.47;;;9.60;99.90;;;;;;5064869;28;20051;-71
2023/04/01 07:27:12;;;;;;;14.32;6.38;;;9.60;99.90;;;;;;5061625;28;20086;-71
2023/04/01 07:29:38;;;;;;;13.38;6.68;;;9.60;99.90;;;;;;5068724;28;20036;-71
2023/04/01 07:32:09;;;;;;;12.50;6.10;;;9.60;99.90;;;;;;5051167;28;20439;-71
2023/04/01 07:35:01;;;;;;;12.20;6.40;;;9.60;99.90;;;;;;5065002;28;20037;-70
2023/04/01 07:37:26;;;;;;;13.47;5.80;;;9.60;99.90;;;;;;5045659;28;20045;-71
2023/04/01 07:39:58;;;;;;;10.80;5.18;;;9.70;99.90;;;;;;5048044;28;20701;-70
2023/04/01 07:42:45;;;;;;;9.73;5.38;;;9.70;99.90;;;;;;5049205;28;20083;-71
2023/04/01 07:45:26;;;;;;;13.65;6.15;;;9.70;99.90;;;;;;5079781;28;20504;-71
2023/04/01 07:48:19;;;;;;;12.60;5.97;;;9.70;99.90;;;;;;5062991;28;20060;-71
2023/04/01 07:51:13;;;;;;;13.07;5.93;;;9.70;99.90;;;;;;5044079;28;20093;-71
2023/04/01 07:53:57;;;;;;;14.80;5.78;;;9.80;99.90;;;;;;5054377;28;20051;-71
2023/04/01 07:57:09;;;;;;;13.05;5.82;;;9.80;99.90;;;;;;5067631;28;20509;-71
2023/04/01 07:59:56;;;;;;;13.52;5.85;;;9.80;99.90;;;;;;5054984;28;20049;-71
2023/04/01 08:02:32;;;;;;;19.73;6.85;;;9.80;99.90;;;;;;5062971;28;20367;-71
2023/04/01 08:05:32;;;;;;;13.90;5.50;;;9.80;99.90;;;;;;5065883;28;20071;-71
2023/04/01 08:08:25;;;;;;;13.18;5.35;;;9.80;99.90;;;;;;5065642;28;20071;-71
2023/04/01 08:11:15;;;;;;;12.27;5.82;;;9.80;99.90;;;;;;5057321;28;20136;-71
2023/04/01 08:14:00;;;;;;;13.27;4.78;;;9.80;99.90;;;;;;5065903;28;20045;-71
2023/04/01 08:16:38;;;;;;;9.48;4.40;;;9.90;99.90;;;;;;5067985;28;20036;-71
2023/04/01 08:19:30;;;;;;;5.95;3.42;;;9.90;99.90;;;;;;5066359;28;20514;-71
2023/04/01 08:22:04;;;;;;;4.88;3.15;;;9.90;99.90;;;;;;5060773;28;20047;-71
2023/04/01 08:24:43;;;;;;;5.65;3.17;;;10.00;99.90;;;;;;5062872;28;20036;-71
2023/04/01 08:27:22;;;;;;;3.83;2.35;;;10.00;99.90;;;;;;5048148;28;20528;-70
2023/04/01 08:30:19;;;;;;;4.15;2.78;;;10.10;99.90;;;;;;5062271;28;20073;-71
2023/04/01 08:33:17;;;;;;;3.92;2.00;;;10.20;99.90;;;;;;5063643;28;20119;-71
2023/04/01 08:35:56;;;;;;;2.90;1.80;;;10.20;99.90;;;;;;5077523;28;20059;-70
2023/04/01 08:38:34;;;;;;;3.58;2.42;;;10.20;99.90;;;;;;5067198;28;20492;-70
2023/04/01 08:41:37;;;;;;;4.78;2.08;;;10.30;99.90;;;;;;5065917;28;20048;-71
2023/04/01 08:44:41;;;;;;;3.00;2.25;;;10.40;99.90;;;;;;5062155;28;20072;-70
2023/04/01 08:47:25;;;;;;;5.90;2.17;;;10.50;99.90;;;;;;5064863;28;20040;-70
2023/04/01 08:50:22;;;;;;;3.00;2.38;;;10.60;99.90;;;;;;5066134;28;20057;-70
2023/04/01 08:53:11;;;;;;;3.45;2.53;;;10.80;99.90;;;;;;5064652;28;20044;-70
2023/04/01 08:55:42;;;;;;;3.70;2.70;;;10.80;99.90;;;;;;5039801;28;20101;-70
2023/04/01 08:58:37;;;;;;;5.22;3.20;;;10.80;99.90;;;;;;5059325;28;20090;-70
2023/04/01 09:01:33;;;;;;;4.78;3.47;;;11.00;99.90;;;;;;5063265;28;20044;-70
2023/04/01 09:04:24;;;;;;;7.07;3.58;;;11.00;99.90;;;;;;5069644;28;20097;-71
2023/04/01 09:06:55;;;;;;;8.95;3.92;;;11.00;99.90;;;;;;5055292;28;20055;-70
2023/04/01 09:09:42;;;;;;;5.20;3.63;;;11.00;99.90;;;;;;5058078;28;20048;-70
2023/04/01 09:12:28;;;;;;;5.32;3.67;;;11.00;99.90;;;;;;5063578;28;20302;-70
2023/04/01 09:15:26;;;;;;;6.07;4.28;;;11.00;99.90;;;;;;5049450;28;20058;-70
2023/04/01 09:17:51;;;;;;;6.85;4.72;;;11.00;99.90;;;;;;5039933;28;20045;-70
2023/04/01 09:20:20;;;;;;;7.75;4.97;;;11.00;99.90;;;;;;5048564;28;20037;-70
2023/04/01 09:23:16;;;;;;;6.53;4.63;;;11.00;99.90;;;;;;5069699;28;20072;-70
2023/04/01 09:26:00;;;;;;;7.35;4.75;;;11.10;99.90;;;;;;5061553;28;20036;-70
2023/04/01 09:28:50;;;;;;;6.78;5.13;;;11.20;99.90;;;;;;5066665;28;20049;-70
2023/04/01 09:31:41;;;;;;;6.80;4.97;;;11.20;99.90;;;;;;5061659;28;20041;-70
2023/04/01 09:34:12;;;;;;;7.50;5.20;;;11.30;99.90;;;;;;5062409;28;20405;-70
2023/04/01 09:36:44;;;;;;;7.43;5.47;;;11.40;99.90;;;;;;5062186;28;20070;-70
2023/04/01 09:39:10;;;;;;;7.13;5.07;;;11.50;99.90;;;;;;5063498;28;20151;-72
2023/04/01 09:42:02;;;;;;;6.35;4.70;;;11.60;99.90;;;;;;5055482;28;20141;-70
2023/04/01 09:45:07;;;;;;;7.75;4.82;;;11.70;99.90;;;;;;5070191;28;20056;-71
2023/04/01 09:47:51;;;;;;;7.40;5.50;;;11.70;99.90;;;;;;5028272;28;20037;-70
2023/04/01 09:50:32;;;;;;;7.47;4.68;;;11.70;99.90;;;;;;5037259;28;20084;-70
2023/04/01 09:53:08;;;;;;;5.95;4.68;;;11.80;99.90;;;;;;5070262;28;20064;-70
2023/04/01 09:56:18;;;;;;;5.88;4.63;;;11.90;99.90;;;;;;5069090;28;20052;-70
2023/04/01 09:59:15;;;;;;;5.88;4.13;;;11.90;99.90;;;;;;5075192;28;20113;-70
2023/04/01 10:02:28;;;;;;;6.05;4.43;;;11.90;99.90;;;;;;5068640;28;20124;-70
2023/04/01 10:05:11;;;;;;;5.57;4.35;;;11.90;99.90;;;;;;5044816;28;20131;-70
2023/04/01 10:07:46;;;;;;;6.70;4.82;;;12.00;99.90;;;;;;5060966;28;20043;-70
2023/04/01 10:10:31;;;;;;;6.97;4.80;;;12.10;99.90;;;;;;5052918;28;20051;-70
2023/04/01 10:13:14;;;;;;;5.78;4.40;;;12.00;99.90;;;;;;5053201;28;20035;-69
2023/04/01 10:16:08;;;;;;;6.05;4.80;;;12.00;99.90;;;;;;5069299;28;20043;-71
2023/04/01 10:18:54;;;;;;;5.78;4.47;;;12.10;99.90;;;;;;5050891;28;20056;-71
2023/04/01 10:21:42;;;;;;;6.97;4.85;;;12.20;99.90;;;;;;5065087;28;20094;-71
2023/04/01 10:24:25;;;;;;;7.97;5.00;;;12.20;99.90;;;;;;5084589;28;20374;-71
2023/04/01 10:27:17;;;;;;;5.82;4.80;;;12.20;99.90;;;;;;5066944;28;20051;-70
2023/04/01 10:30:10;;;;;;;7.15;5.38;;;12.20;99.90;;;;;;5058921;28;20131;-70
2023/04/01 10:32:53;;;;;;;7.35;5.00;;;12.10;99.90;;;;;;5035447;28;20476;-70
2023/04/01 10:35:34;;;;;;;7.03;4.90;;;12.10;99.90;;;;;;5066940;28;20052;-71
2023/04/01 10:38:21;;;;;;;6.55;5.18;;;12.00;99.90;;;;;;5065048;28;20045;-70
2023/04/01 10:41:16;;;;;;;6.43;4.97;;;11.90;99.90;;;;;;5068308;28;20049;-71
2023/04/01 10:44:16;;;;;;;8.75;4.57;;;11.90;99.90;;;;;;5065338;28;20115;-71
2023/04/01 10:47:08;;;;;;;7.75;5.05;;;11.90;99.90;;;;;;5065617;28;20045;-71
2023/04/01 10:50:15;;;;;;;6.35;4.35;;;12.00;99.90;;;;;;5081255;28;20102;-71
2023/04/01 10:53:11;;;;;;;6.60;4.60;;;11.90;99.90;;;;;;5055192;28;20041;-71
2023/04/01 10:55:55;;;;;;;5.78;4.78;;;11.90;99.90;;;;;;5052680;28;20514;-71
2023/04/01 10:58:30;;;;;;;8.45;5.80;;;11.90;99.90;;;;;;5063382;28;20405;-70
2023/04/01 11:01:18;;;;;;;7.25;5.32;;;12.00;99.90;;;;;;5066781;28;20044;-71
2023/04/01 11:04:08;;;;;;;8.45;5.78;;;12.00;99.90;;;;;;5062746;28;20043;-71
2023/04/01 11:06:54;;;;;;;11.93;7.30;;;12.10;99.90;;;;;;5061890;28;20409;-71
2023/04/01 11:09:39;;;;;;;10.15;7.75;;;12.20;99.90;;;;;;5058381;28;20036;-71
2023/04/01 11:12:26;;;;;;;15.18;8.30;;;12.30;99.90;;;;;;5062021;28;20454;-71
2023/04/01 11:15:39;;;;;;;10.05;7.57;;;12.40;99.90;;;;;;5062829;28;20036;-71
2023/04/01 11:18:04;;;;;;;10.13;7.20;;;12.50;99.90;;;;;;5007343;28;20052;-70
2023/04/01 11:20:54;;;;;;;6.65;5.20;;;12.50;99.90;;;;;;5056770;28;20041;-71
2023/04/01 11:23:31;;;;;;;6.10;5.03;;;12.30;99.90;;;;;;5065001;28;20080;-70
2023/04/01 11:26:28;;;;;;;5.35;4.38;;;12.10;99.90;;;;;;5048640;28;20459;-70
2023/04/01 11:29:02;;;;;;;6.50;4.97;;;11.80;99.90;;;;;;5046247;28;20233;-68
2023/04/01 11:31:46;;;;;;;7.05;5.10;;;11.60;99.90;;;;;;5059715;28;20485;-71
2023/04/01 11:34:26;;;;;;;7.32;4.80;;;11.40;99.90;;;;;;5057985;28;20035;-71
2023/04/01 11:37:19;;;;;;;5.00;4.50;;;11.30;99.90;;;;;;5062349;28;20037;-71
2023/04/01 11:40:19;;;;;;;5.60;4.68;;;11.10;99.90;;;;;;5061322;28;20099;-70
2023/04/01 11:43:20;;;;;;;5.95;4.32;;;11.00;99.90;;;;;;5043649;28;20390;-70
2023/04/01 11:45:55;;;;;;;5.65;4.22;;;10.90;99.90;;;;;;5060350;28;20128;-70
2023/04/01 11:48:30;;;;;;;5.13;4.35;;;10.70;99.90;;;;;;5062098;28;20036;-71
2023/04/01 11:51:08;;;;;;;4.80;4.10;;;10.70;99.90;;;;;;5062415;28;20045;-71
2023/04/01 11:54:19;;;;;;;5.70;4.00;;;10.60;99.90;;;;;;5061801;28;20837;-70
2023/04/01 11:57:18;;;;;;;4.60;3.60;;;10.50;99.90;;;;;;5050166;28;20059;-71
2023/04/01 12:00:12;;;;;;;4.55;3.40;;;10.50;99.90;;;;;;5063160;28;20083;-70
2023/04/01 12:02:59;;;;;;;5.28;4.03;;;10.40;99.90;;;;;;5062484;28;20032;-70
2023/04/01 12:05:30;;;;;;;6.35;4.10;;;10.40;99.90;;;;;;5063818;28;20403;-70
2023/04/01 12:08:04;;;;;;;5.43;4.00;;;10.40;99.90;;;;;;5063362;28;20033;-70
2023/04/01 12:10:40;;;;;;;5.47;3.70;;;10.40;99.90;;;;;;5062959;28;20306;-70
2023/04/01 12:13:17;;;;;;;5.30;3.72;;;10.40;99.90;;;;;;5059762;28;20110;-70
2023/04/01 12:16:14;;;;;;;5.15;3.67;;;10.40;99.90;;;;;;5062089;28;20037;-71
2023/04/01 12:19:13;;;;;;;4.80;3.80;;;10.50;99.90;;;;;;5069052;28;21278;-71
2023/04/01 12:21:43;;;;;;;3.80;3.40;;;10.60;99.90;;;;;;5067964;28;20401;-71
2023/04/01 12:24:30;;;;;;;4.28;3.70;;;10.60;99.90;;;;;;5062639;28;20051;-71
2023/04/01 12:27:07;;;;;;;4.10;3.40;;;10.80;99.90;;;;;;5069828;28;20040;-70
2023/04/01 12:29:48;;;;;;;4.15;3.63;;;10.90;99.90;;;;;;5060785;28;20398;-71
2023/04/01 12:32:25;;;;;;;4.00;3.42;;;10.90;99.90;;;;;;5061869;28;20063;-71
2023/04/01 12:35:06;;;;;;;3.78;3.22;;;10.80;99.90;;;;;;5062546;28;20115;-67
2023/04/01 12:37:41;;;;;;;4.90;3.50;;;10.70;99.90;;;;;;5056462;28;20462;-67
2023/04/01 12:40:28;;;;;;;3.92;3.47;;;10.60;99.90;;;;;;5063120;28;20043;-66
2023/04/01 12:43:29;;;;;;;4.10;3.28;;;10.50;99.90;;;;;;5025288;28;20053;-67
2023/04/01 12:46:06;;;;;;;4.10;3.30;;;10.50;99.90;;;;;;5021083;28;20057;-67
2023/04/01 12:49:16;;;;;;;4.10;3.33;;;10.50;99.90;;;;;;5021221;28;20759;-67
2023/04/01 12:51:57;;;;;;;3.53;3.17;;;10.50;99.90;;;;;;4993344;28;20506;-66
2023/04/01 12:54:38;;;;;;;5.38;3.30;;;10.40;99.90;;;;;;5019508;28;20057;-67
2023/04/01 12:57:31;;;;;;;3.65;3.25;;;10.30;99.90;;;;;;5023484;28;20037;-67
2023/04/01 13:00:34;;;;;;;4.28;3.10;;;10.20;99.90;;;;;;5028680;28;20037;-67
2023/04/01 13:03:17;;;;;;;3.60;3.25;;;10.10;99.90;;;;;;5021056;28;20037;-67
2023/04/01 13:05:42;;;;;;;;;;;10.10;99.90;;;;;;5027729;28;20068;-67
2023/04/01 13:08:23;;;;;;;4.32;3.25;;;10.00;99.90;;;;;;5026722;28;19924;-67
2023/04/01 13:11:08;;;;;;;3.50;3.05;;;10.00;99.90;;;;;;5018221;28;20503;-67
2023/04/01 13:14:01;;;;;;;6.03;3.95;;;9.90;99.90;;;;;;5037122;28;20046;-67
2023/04/01 13:16:33;;;;;;;4.07;3.30;;;10.00;99.90;;;;;;5028870;28;20059;-67
2023/04/01 13:19:16;;;;;;;3.70;3.08;;;10.00;99.90;;;;;;5013398;28;20089;-67
2023/04/01 13:21:54;;;;;;;4.68;3.60;;;10.00;99.90;;;;;;5018280;28;20052;-67
2023/04/01 13:24:45;;;;;;;3.85;3.15;;;9.90;99.90;;;;;;5031466;28;20076;-67
2023/04/01 13:27:28;;;;;;;4.57;3.70;;;9.90;99.90;;;;;;5029467;28;20041;-67
2023/04/01 13:30:19;;;;;;;4.88;3.55;;;9.80;99.90;;;;;;5031502;28;20037;-67
2023/04/01 13:32:58;;;;;;;4.72;3.80;;;9.80;99.90;;;;;;5026246;28;20053;-67
2023/04/01 13:35:50;;;;;;;4.63;3.58;;;9.60;99.90;;;;;;5046024;28;20030;-67
2023/04/01 13:38:19;;;;;;;5.45;3.80;;;9.60;99.90;;;;;;5029784;28;20376;-67